Time;durP1;ratioP1;P1;durP2;ratioP2;P2;SDS_P1;SDS_P2;PMS_P1;PMS_P2;Temp;Humidity;BMP_temperature;BMP_pressure;BME280_temperature;BME280_humidity;BME280_pressure;Samples;Min_cycle;Max_cycle;Signal;HPM_P1;HPM_P2
2023/07/03 00:00:14;;;;;;;28.23;14.30;;;;;;;19.52;100.00;95937.41;5071160;28;20031;-87
2023/07/03 00:02:46;;;;;;;26.57;14.47;;;;;;;19.64;100.00;95948.97;5072015;28;20055;-87
2023/07/03 00:05:11;;;;;;;28.20;14.90;;;;;;;19.37;100.00;95950.28;5084220;28;20081;-87
2023/07/03 00:07:38;;;;;;;30.57;14.40;;;;;;;19.28;100.00;95947.91;5099898;28;20043;-88
2023/07/03 00:10:05;;;;;;;24.80;13.17;;;;;;;19.42;100.00;95948.59;5089983;28;20027;-87
2023/07/03 00:12:31;;;;;;;22.50;14.10;;;;;;;19.33;100.00;95946.44;5079121;28;20028;-88
2023/07/03 00:14:57;;;;;;;28.47;13.83;;;;;;;19.37;100.00;95945.75;5072455;28;20532;-87
2023/07/03 00:17:23;;;;;;;26.70;13.23;;;;;;;19.48;100.00;95944.19;5068423;28;20145;-87
2023/07/03 00:19:48;;;;;;;25.10;12.57;;;;;;;19.52;100.00;95940.88;5089619;28;20036;-88
2023/07/03 00:22:14;;;;;;;27.50;14.07;;;;;;;19.47;100.00;95948.72;5070724;28;20032;-87
2023/07/03 00:24:40;;;;;;;26.53;13.07;;;;;;;19.44;100.00;95943.81;5071910;28;20476;-87
2023/07/03 00:27:06;;;;;;;22.23;12.10;;;;;;;19.43;100.00;95946.72;5089670;28;20039;-87
2023/07/03 00:29:33;;;;;;;25.83;13.77;;;;;;;19.40;100.00;95947.16;5096171;28;20084;-87
2023/07/03 00:32:00;;;;;;;20.97;12.47;;;;;;;19.43;100.00;95942.19;5087800;28;20030;-87
2023/07/03 00:34:26;;;;;;;24.47;14.27;;;;;;;19.72;100.00;95937.22;5071651;28;20103;-86
2023/07/03 00:36:52;;;;;;;25.27;13.60;;;;;;;19.59;100.00;95937.31;5071652;28;20468;-87
2023/07/03 00:39:18;;;;;;;25.30;13.17;;;;;;;19.78;100.00;95936.28;5070943;28;20027;-87
2023/07/03 00:41:43;;;;;;;24.33;12.83;;;;;;;19.76;100.00;95935.72;5103121;28;20451;-87
2023/07/03 00:44:18;;;;;;;24.33;13.27;;;;;;;19.84;100.00;95940.72;5068768;28;20035;-87
2023/07/03 00:46:47;;;;;;;22.10;12.90;;;;;;;19.74;100.00;95937.78;5088676;28;20051;-87
2023/07/03 00:49:13;;;;;;;23.10;12.53;;;;;;;19.90;100.00;95941.69;5087305;28;20538;-87
2023/07/03 00:51:45;;;;;;;26.60;13.57;;;;;;;19.70;100.00;95941.94;5083963;27;20031;-87
2023/07/03 00:54:11;;;;;;;23.97;12.73;;;;;;;19.71;100.00;95941.69;5075593;28;20032;-87
2023/07/03 00:56:37;;;;;;;23.20;13.27;;;;;;;19.82;100.00;95937.50;5092347;28;20465;-87
2023/07/03 00:59:03;;;;;;;22.37;12.30;;;;;;;19.61;100.00;95940.56;5087746;28;20054;-87
2023/07/03 01:01:37;;;;;;;24.47;13.97;;;;;;;19.66;100.00;95946.09;5091564;28;20489;-87
2023/07/03 01:04:31;;;;;;;21.10;12.40;;;;;;;19.57;100.00;95942.88;5068796;28;20206;-87
2023/07/03 01:07:01;;;;;;;22.20;12.07;;;;;;;19.81;100.00;95943.84;5103429;28;20035;-87
2023/07/03 01:09:36;;;;;;;24.53;12.73;;;;;;;19.77;100.00;95948.00;5069502;28;20167;-87
2023/07/03 01:12:03;;;;;;;27.13;12.70;;;;;;;19.82;100.00;95944.66;5076334;28;20023;-87
2023/07/03 01:14:30;;;;;;;25.43;12.80;;;;;;;19.69;100.00;95946.47;5071476;28;20106;-87
2023/07/03 01:16:57;;;;;;;22.27;11.90;;;;;;;19.36;100.00;95941.47;5064197;28;20115;-87
2023/07/03 01:19:32;;;;;;;22.53;12.70;;;;;;;19.89;100.00;95934.75;5106992;28;20023;-87
2023/07/03 01:22:01;;;;;;;22.97;12.40;;;;;;;20.08;100.00;95940.84;5087178;28;20102;-87
2023/07/03 01:24:35;;;;;;;24.37;12.50;;;;;;;20.06;100.00;95930.41;5071486;28;20045;-87
2023/07/03 01:27:04;;;;;;;22.53;12.73;;;;;;;19.79;100.00;95929.94;5083840;28;20027;-87
2023/07/03 01:29:32;;;;;;;24.43;11.63;;;;;;;19.87;100.00;95936.81;5095823;28;20054;-87
2023/07/03 01:31:58;;;;;;;20.07;11.63;;;;;;;19.88;100.00;95939.22;5078919;28;20496;-87
2023/07/03 01:34:27;;;;;;;19.77;11.50;;;;;;;19.64;100.00;95930.28;5070093;28;20024;-87
2023/07/03 01:36:56;;;;;;;25.80;13.40;;;;;;;19.94;100.00;95933.00;5069515;28;20115;-87
2023/07/03 01:39:23;;;;;;;23.17;12.17;;;;;;;19.75;100.00;95932.22;5084683;28;20061;-87
2023/07/03 01:41:49;;;;;;;24.60;11.23;;;;;;;19.83;100.00;95931.09;5105044;28;20416;-87
2023/07/03 01:44:15;;;;;;;24.23;12.17;;;;;;;19.68;100.00;95938.66;5091922;28;20032;-87
2023/07/03 01:46:41;;;;;;;25.53;13.17;;;;;;;19.59;100.00;95934.66;5088212;28;20331;-87
2023/07/03 01:49:14;;;;;;;23.70;11.93;;;;;;;19.68;100.00;95928.00;5073466;28;20028;-87
2023/07/03 01:51:47;;;;;;;;;;;;;;;19.60;100.00;95926.41;5072088;28;20030;-87
2023/07/03 01:54:26;;;;;;;22.15;11.98;;;;;;;19.72;100.00;95930.00;5092157;28;19912;-87
2023/07/03 01:56:54;;;;;;;22.83;12.27;;;;;;;19.97;100.00;95919.22;5079641;28;20027;-87
2023/07/03 01:59:29;;;;;;;21.57;11.83;;;;;;;20.01;100.00;95915.03;5071867;28;20457;-87
2023/07/03 02:02:15;;;;;;;24.67;12.68;;;;;;;19.91;100.00;95914.78;5093776;28;20465;-87
2023/07/03 02:05:02;;;;;;;20.63;12.20;;;;;;;20.02;100.00;95911.34;5088524;28;20028;-86
2023/07/03 02:07:30;;;;;;;23.43;11.03;;;;;;;20.32;100.00;95915.03;5090599;28;20039;-87
2023/07/03 02:09:56;;;;;;;22.13;12.80;;;;;;;20.42;100.00;95916.13;5073833;28;20058;-87
2023/07/03 02:12:22;;;;;;;18.03;11.57;;;;;;;20.41;100.00;95908.31;5085047;28;20087;-87
2023/07/03 02:14:48;;;;;;;20.93;11.73;;;;;;;20.48;100.00;95914.38;5077824;28;20146;-87
2023/07/03 02:17:14;;;;;;;23.77;12.87;;;;;;;20.41;100.00;95911.00;5094722;28;20031;-87
2023/07/03 02:19:40;;;;;;;26.20;13.85;;;;;;;20.47;100.00;95910.09;5073852;28;20028;-87
2023/07/03 02:22:07;;;;;;;24.80;13.38;;;;;;;20.52;100.00;95912.91;5067287;28;20192;-87
2023/07/03 02:24:34;;;;;;;21.55;11.90;;;;;;;20.12;100.00;95907.31;5070661;28;20031;-87
2023/07/03 02:27:00;;;;;;;17.58;11.82;;;;;;;20.08;100.00;95911.47;5074620;28;20012;-87
2023/07/03 02:29:25;;;;;;;23.27;11.67;;;;;;;19.93;100.00;95910.03;5084324;28;20062;-87
2023/07/03 02:31:51;;;;;;;20.83;11.70;;;;;;;20.08;100.00;95914.13;5073018;28;20349;-87
2023/07/03 02:34:16;;;;;;;21.47;11.90;;;;;;;20.02;100.00;95914.03;5074363;28;20027;-88
2023/07/03 02:36:46;;;;;;;22.57;11.27;;;;;;;20.13;100.00;95907.09;5091236;28;20641;-87
2023/07/03 02:39:11;;;;;;;26.40;11.80;;;;;;;20.51;100.00;95905.94;5095192;28;20582;-86
2023/07/03 02:41:37;;;;;;;25.58;12.25;;;;;;;20.49;100.00;95910.69;5075382;28;20055;-87
2023/07/03 02:44:03;;;;;;;21.87;11.67;;;;;;;20.18;100.00;95901.06;5073370;28;20023;-87
2023/07/03 02:46:31;;;;;;;25.73;12.17;;;;;;;20.36;100.00;95914.38;5087674;28;20027;-87
2023/07/03 02:48:56;;;;;;;22.70;10.80;;;;;;;20.10;100.00;95914.75;5079550;28;20031;-87
2023/07/03 02:51:22;;;;;;;21.43;11.70;;;;;;;20.04;100.00;95915.63;5073494;28;20050;-87
2023/07/03 02:53:50;;;;;;;21.33;11.97;;;;;;;20.28;100.00;95914.66;5082736;28;20038;-87
2023/07/03 02:56:16;;;;;;;28.77;12.43;;;;;;;20.15;100.00;95905.00;5073021;28;20049;-87
2023/07/03 02:58:44;;;;;;;19.33;11.15;;;;;;;20.27;100.00;95901.56;5074742;28;20089;-87
2023/07/03 03:01:14;;;;;;;19.98;11.32;;;;;;;20.32;100.00;95907.00;5092311;28;20118;-87
2023/07/03 03:03:41;;;;;;;20.88;11.05;;;;;;;20.38;100.00;95904.25;5091145;27;20133;-87
2023/07/03 03:06:07;;;;;;;22.23;11.53;;;;;;;20.36;100.00;95909.03;5073401;28;20115;-84
2023/07/03 03:08:32;;;;;;;22.03;12.00;;;;;;;20.42;100.00;95910.78;5107980;28;20407;-87
2023/07/03 03:10:59;;;;;;;23.93;11.33;;;;;;;20.22;100.00;95910.22;5088101;28;20043;-87
2023/07/03 03:13:25;;;;;;;23.40;11.77;;;;;;;20.19;100.00;95913.38;5073563;28;20134;-87
2023/07/03 03:15:54;;;;;;;22.33;12.07;;;;;;;20.45;100.00;95914.81;5089262;28;20019;-87
2023/07/03 03:18:21;;;;;;;20.23;12.30;;;;;;;20.51;100.00;95921.16;5090003;28;20038;-87
2023/07/03 03:20:47;;;;;;;22.10;11.80;;;;;;;20.47;100.00;95916.22;5070289;28;20073;-87
2023/07/03 03:23:13;;;;;;;24.45;11.57;;;;;;;20.56;100.00;95913.28;5068980;28;20016;-87
2023/07/03 03:25:39;;;;;;;22.25;12.27;;;;;;;20.16;100.00;95909.31;5093157;28;20088;-87
2023/07/03 03:28:06;;;;;;;24.33;12.80;;;;;;;19.85;100.00;95918.38;5073363;28;20007;-88
2023/07/03 03:30:32;;;;;;;22.23;12.55;;;;;;;19.96;100.00;95922.94;5075028;28;20083;-87
2023/07/03 03:32:58;;;;;;;18.95;12.18;;;;;;;20.24;100.00;95910.84;5082595;28;20057;-88
2023/07/03 03:35:24;;;;;;;19.25;11.82;;;;;;;19.89;100.00;95916.88;5076397;28;20477;-87
2023/07/03 03:37:51;;;;;;;24.13;12.43;;;;;;;20.27;100.00;95912.25;5094400;28;20039;-87
2023/07/03 03:40:17;;;;;;;26.80;12.38;;;;;;;19.97;100.00;95910.38;5094724;28;21379;-87
2023/07/03 03:42:42;;;;;;;25.85;12.40;;;;;;;20.28;100.00;95911.19;5070899;28;20020;-87
2023/07/03 03:45:08;;;;;;;24.27;13.00;;;;;;;20.22;100.00;95915.56;5091244;28;20027;-87
2023/07/03 03:47:34;;;;;;;24.33;12.15;;;;;;;20.15;100.00;95914.84;5076316;28;20114;-87
2023/07/03 03:50:01;;;;;;;20.57;11.80;;;;;;;19.87;100.00;95913.59;5106850;28;20028;-87
2023/07/03 03:52:28;;;;;;;25.50;12.90;;;;;;;19.95;100.00;95910.63;5089802;28;20095;-87
2023/07/03 03:54:54;;;;;;;27.98;12.73;;;;;;;19.96;100.00;95914.91;5073899;28;20085;-86
2023/07/03 03:57:20;;;;;;;23.20;12.50;;;;;;;20.17;100.00;95910.94;5085441;28;20015;-87
2023/07/03 03:59:45;;;;;;;21.37;12.73;;;;;;;20.30;100.00;95917.13;5074450;28;20032;-87
2023/07/03 04:02:12;;;;;;;25.45;13.18;;;;;;;20.22;100.00;95918.25;5091593;28;20425;-87
2023/07/03 04:04:37;;;;;;;24.33;13.48;;;;;;;20.23;100.00;95917.22;5099785;28;20028;-86
2023/07/03 04:07:03;;;;;;;22.92;13.05;;;;;;;19.84;100.00;95922.06;5073065;28;20030;-86
2023/07/03 04:09:29;;;;;;;19.20;11.70;;;;;;;19.91;100.00;95922.78;5080274;28;20449;-86
2023/07/03 04:11:55;;;;;;;21.20;12.13;;;;;;;20.32;100.00;95923.88;5076452;28;20027;-87
2023/07/03 04:14:21;;;;;;;21.02;11.40;;;;;;;20.09;100.00;95918.47;5077708;28;20024;-85
2023/07/03 04:16:48;;;;;;;20.30;11.60;;;;;;;20.16;100.00;95925.31;5072657;28;20055;-86
2023/07/03 04:19:18;;;;;;;22.00;11.63;;;;;;;20.32;100.00;95926.56;5089725;28;20039;-86
2023/07/03 04:21:44;;;;;;;24.95;12.15;;;;;;;20.59;100.00;95920.81;5082952;28;20168;-86
2023/07/03 04:24:10;;;;;;;23.52;11.75;;;;;;;20.49;100.00;95924.03;5088195;28;20101;-86
2023/07/03 04:26:38;;;;;;;23.77;12.30;;;;;;;20.43;100.00;95925.75;5068558;28;20038;-86
2023/07/03 04:29:04;;;;;;;18.75;12.27;;;;;;;20.27;100.00;95925.59;5066218;28;20024;-86
2023/07/03 04:31:31;;;;;;;24.38;13.45;;;;;;;20.38;100.00;95938.97;5091837;28;20460;-86
2023/07/03 04:33:57;;;;;;;21.65;11.57;;;;;;;20.30;100.00;95920.59;5086582;28;20122;-86
2023/07/03 04:36:22;;;;;;;22.50;12.13;;;;;;;20.37;100.00;95933.88;5070600;28;20130;-86
2023/07/03 04:38:48;;;;;;;19.90;11.90;;;;;;;20.19;100.00;95927.53;5070095;28;20031;-86
2023/07/03 04:41:15;;;;;;;23.83;11.95;;;;;;;20.15;100.00;95929.00;5082052;28;20058;-86
2023/07/03 04:43:47;;;;;;;21.97;12.37;;;;;;;20.12;100.00;95932.16;5107622;28;20023;-81
2023/07/03 04:46:14;;;;;;;18.65;11.63;;;;;;;20.55;100.00;95924.97;5074071;28;20062;-87
2023/07/03 04:48:39;;;;;;;18.85;11.48;;;;;;;20.46;100.00;95933.31;5099958;28;20028;-86
2023/07/03 04:51:05;;;;;;;21.30;11.68;;;;;;;20.56;100.00;95927.44;5094763;27;20322;-86
2023/07/03 04:53:40;;;;;;;24.55;11.65;;;;;;;20.36;100.00;95929.56;5090031;28;20254;-86
2023/07/03 04:56:07;;;;;;;26.08;12.60;;;;;;;20.31;100.00;95932.09;5065367;28;20072;-87
2023/07/03 04:58:32;;;;;;;22.00;11.70;;;;;;;20.44;100.00;95938.06;5093560;28;20026;-86
2023/07/03 05:00:58;;;;;;;19.63;11.20;;;;;;;20.45;100.00;95931.66;5111611;27;20020;-86
2023/07/03 05:03:23;;;;;;;23.30;11.23;;;;;;;20.65;100.00;95939.41;5088310;28;20195;-87
2023/07/03 05:05:49;;;;;;;22.43;12.87;;;;;;;20.77;100.00;95936.75;5072416;28;20417;-87
2023/07/03 05:08:14;;;;;;;26.00;13.30;;;;;;;20.48;100.00;95939.22;5071624;28;20032;-87
2023/07/03 05:10:40;;;;;;;23.30;11.30;;;;;;;20.80;100.00;95933.63;5071543;28;20031;-87
2023/07/03 05:13:06;;;;;;;21.60;12.32;;;;;;;20.78;100.00;95935.72;5079175;28;20050;-87
2023/07/03 05:15:31;;;;;;;24.63;11.07;;;;;;;20.83;100.00;95935.03;5086441;28;20121;-87
2023/07/03 05:17:58;;;;;;;25.75;12.50;;;;;;;20.89;100.00;95939.44;5068335;28;20086;-87
2023/07/03 05:20:25;;;;;;;21.52;12.35;;;;;;;21.08;100.00;95929.47;5101995;28;20034;-87
2023/07/03 05:22:52;;;;;;;20.65;10.90;;;;;;;21.27;100.00;95930.97;5101970;28;20103;-87
2023/07/03 05:25:18;;;;;;;22.88;11.55;;;;;;;21.20;100.00;95932.94;5113476;28;20034;-87
2023/07/03 05:27:44;;;;;;;20.13;11.20;;;;;;;21.30;100.00;95930.50;5071931;28;20028;-87
2023/07/03 05:30:10;;;;;;;24.33;12.02;;;;;;;21.19;100.00;95933.97;5066385;28;20096;-87
2023/07/03 05:32:36;;;;;;;22.35;12.32;;;;;;;21.57;100.00;95930.03;5104959;28;20377;-87
2023/07/03 05:35:04;;;;;;;21.67;11.90;;;;;;;21.48;100.00;95926.09;5071603;28;20093;-87
2023/07/03 05:37:30;;;;;;;22.60;11.70;;;;;;;21.47;100.00;95930.63;5070505;28;20027;-87
2023/07/03 05:39:55;;;;;;;19.55;10.57;;;;;;;21.21;100.00;95931.09;5080634;28;20039;-88
2023/07/03 05:42:21;;;;;;;23.23;11.35;;;;;;;21.47;100.00;95937.84;5076364;28;20027;-86
2023/07/03 05:44:48;;;;;;;21.55;12.55;;;;;;;21.49;100.00;95936.53;5109776;27;20434;-87
2023/07/03 05:47:15;;;;;;;20.17;11.75;;;;;;;21.49;100.00;95949.91;5091277;28;20023;-87
2023/07/03 05:49:40;;;;;;;21.73;11.60;;;;;;;21.88;100.00;95942.97;5094665;27;20128;-87
2023/07/03 05:52:07;;;;;;;19.55;11.32;;;;;;;21.58;100.00;95950.38;5077029;27;20047;-87
2023/07/03 05:54:32;;;;;;;20.00;11.02;;;;;;;21.38;100.00;95948.88;5091898;27;20404;-88
2023/07/03 05:57:10;;;;;;;21.30;11.82;;;;;;;21.49;100.00;95955.25;5100831;27;20023;-88
2023/07/03 05:59:37;;;;;;;20.45;11.15;;;;;;;21.64;100.00;95958.28;5083684;27;20049;-87
2023/07/03 06:02:06;;;;;;;23.85;11.70;;;;;;;21.45;100.00;95969.34;5088361;27;20019;-87
2023/07/03 06:04:33;;;;;;;23.55;11.93;;;;;;;21.46;100.00;95970.97;5101920;28;20072;-87
2023/07/03 06:07:00;;;;;;;20.75;10.38;;;;;;;21.70;100.00;95972.59;5094443;27;20473;-90
2023/07/03 06:09:27;;;;;;;22.95;12.40;;;;;;;21.88;100.00;95964.38;5098420;28;20023;-89
2023/07/03 06:11:55;;;;;;;19.63;10.90;;;;;;;21.77;100.00;95975.16;5085133;27;20088;-90
2023/07/03 06:14:20;;;;;;;24.60;11.43;;;;;;;22.16;100.00;95962.00;5113221;27;20015;-90
2023/07/03 06:16:48;;;;;;;18.52;10.18;;;;;;;21.98;100.00;95968.34;5103115;27;20039;-89
2023/07/03 06:19:16;;;;;;;21.67;10.20;;;;;;;22.08;100.00;95976.56;5108102;28;20003;-88
2023/07/03 06:21:42;;;;;;;21.75;10.55;;;;;;;22.40;100.00;95971.59;5091567;27;20065;-89
2023/07/03 06:24:09;;;;;;;22.60;12.32;;;;;;;21.83;100.00;95972.34;5107205;27;20023;-89
2023/07/03 06:26:35;;;;;;;19.67;11.43;;;;;;;22.47;100.00;95976.81;5115332;27;20088;-89
2023/07/03 06:29:02;;;;;;;18.38;10.77;;;;;;;22.10;100.00;95969.13;5073929;27;20031;-90
2023/07/03 06:31:28;;;;;;;20.55;10.95;;;;;;;22.26;100.00;95972.91;5099846;27;20126;-90
2023/07/03 06:33:54;;;;;;;20.55;10.60;;;;;;;22.52;100.00;95964.28;5088876;27;20050;-86
2023/07/03 06:36:21;;;;;;;17.38;10.30;;;;;;;22.57;100.00;95983.16;5087184;27;20026;-88
2023/07/03 06:38:51;;;;;;;16.52;9.38;;;;;;;22.82;100.00;95969.34;5088226;27;20027;-88
2023/07/03 06:41:16;;;;;;;16.98;9.27;;;;;;;23.63;99.45;95968.97;5065077;28;20027;-88
2023/07/03 06:43:42;;;;;;;17.05;9.32;;;;;;;23.41;100.00;95973.53;5074310;28;20027;-88
2023/07/03 06:46:10;;;;;;;18.05;9.75;;;;;;;24.01;98.46;95975.44;5090017;28;20035;-88
2023/07/03 06:48:36;;;;;;;16.23;9.88;;;;;;;23.57;98.10;95975.34;5095528;27;20039;-88
2023/07/03 06:51:08;;;;;;;20.70;9.82;;;;;;;23.42;98.89;95973.28;5082624;27;20099;-88
2023/07/03 06:53:33;;;;;;;16.40;9.10;;;;;;;23.69;96.37;95973.41;5106717;27;20027;-88
2023/07/03 06:56:00;;;;;;;16.30;9.38;;;;;;;23.97;95.21;95980.47;5079357;27;20126;-88
2023/07/03 06:58:26;;;;;;;19.40;9.27;;;;;;;24.30;92.41;95967.94;5105992;27;20064;-88
2023/07/03 07:00:56;;;;;;;16.30;8.90;;;;;;;24.73;88.91;95965.44;5085923;27;20031;-89
2023/07/03 07:03:24;;;;;;;18.33;9.50;;;;;;;24.74;87.40;95967.88;5063871;28;20055;-88
2023/07/03 07:05:54;;;;;;;17.95;9.02;;;;;;;25.23;85.12;95977.72;5079558;28;20077;-89
2023/07/03 07:08:20;;;;;;;19.10;9.25;;;;;;;24.67;88.96;95976.13;5075121;28;20035;-88
2023/07/03 07:10:46;;;;;;;19.83;10.30;;;;;;;24.44;89.13;95973.75;5097378;27;20066;-88
2023/07/03 07:13:12;;;;;;;17.42;9.93;;;;;;;24.33;87.47;95978.19;5079687;27;20019;-88
2023/07/03 07:15:40;;;;;;;16.67;9.25;;;;;;;24.39;87.89;95971.00;5093359;27;20046;-88
2023/07/03 07:18:07;;;;;;;17.38;9.40;;;;;;;25.16;81.35;95973.38;5082998;28;20024;-88
2023/07/03 07:20:37;;;;;;;14.05;8.93;;;;;;;25.98;77.19;95968.47;5095393;28;20178;-89
2023/07/03 07:23:03;;;;;;;16.25;8.70;;;;;;;25.71;78.14;95959.69;5070118;28;20024;-88
2023/07/03 07:25:29;;;;;;;16.15;8.00;;;;;;;25.43;78.71;95961.72;5096583;28;20032;-88
2023/07/03 07:27:54;;;;;;;19.17;9.25;;;;;;;24.96;80.17;95964.31;5072964;28;20023;-88
2023/07/03 07:30:20;;;;;;;16.13;9.10;;;;;;;25.33;79.43;95969.72;5103663;27;20026;-88
2023/07/03 07:32:49;;;;;;;14.20;7.90;;;;;;;25.13;78.31;95960.41;5092098;27;20024;-89
2023/07/03 07:35:16;;;;;;;13.57;8.25;;;;;;;24.95;79.81;95960.81;5076800;28;20028;-88
2023/07/03 07:37:42;;;;;;;16.55;8.48;;;;;;;25.43;77.64;95969.78;5074492;27;20030;-88
2023/07/03 07:40:09;;;;;;;15.70;7.95;;;;;;;24.66;81.26;95954.91;5099367;28;20031;-88
2023/07/03 07:42:35;;;;;;;16.23;8.75;;;;;;;24.64;83.33;95965.88;5068561;28;20069;-89
2023/07/03 07:45:01;;;;;;;14.82;8.00;;;;;;;24.91;82.34;95973.13;5102074;27;20027;-88
2023/07/03 07:47:27;;;;;;;20.67;7.90;;;;;;;25.88;76.71;95965.72;5089807;28;20050;-88
2023/07/03 07:49:53;;;;;;;14.65;8.45;;;;;;;25.83;74.63;95974.59;5096581;28;20060;-88
2023/07/03 07:52:18;;;;;;;17.00;9.07;;;;;;;26.33;72.15;95972.38;5098629;28;20408;-91
2023/07/03 07:54:44;;;;;;;13.40;7.93;;;;;;;25.43;74.38;95975.16;5100868;27;20035;-88
2023/07/03 07:57:10;;;;;;;16.50;8.63;;;;;;;25.39;75.41;95961.41;5104594;27;20053;-88
2023/07/03 07:59:36;;;;;;;16.50;9.23;;;;;;;26.10;70.74;95965.56;5088370;27;20447;-88
2023/07/03 08:02:02;;;;;;;20.05;9.07;;;;;;;26.12;70.15;95976.06;5077860;27;20087;-88
2023/07/03 08:04:28;;;;;;;13.45;7.32;;;;;;;27.17;63.18;95964.97;5080101;27;20028;-88
2023/07/03 08:06:54;;;;;;;14.50;8.00;;;;;;;27.24;60.75;95965.50;5085127;28;20601;-88
2023/07/03 08:09:22;;;;;;;17.48;7.63;;;;;;;26.64;63.96;95967.06;5096683;27;20031;-88
2023/07/03 08:11:47;;;;;;;15.23;7.80;;;;;;;26.18;66.56;95975.81;5106729;27;20031;-88
2023/07/03 08:14:13;;;;;;;18.58;8.60;;;;;;;26.07;66.24;95974.97;5078492;27;20144;-88
2023/07/03 08:16:38;;;;;;;15.70;9.52;;;;;;;26.84;61.77;95961.69;5121184;27;20065;-87
2023/07/03 08:19:05;;;;;;;17.35;8.50;;;;;;;26.87;61.07;95966.56;5073651;28;20036;-88
2023/07/03 08:21:31;;;;;;;14.63;7.35;;;;;;;26.69;61.07;95964.38;5117644;27;20620;-88
2023/07/03 08:23:56;;;;;;;14.50;7.88;;;;;;;26.61;61.94;95965.72;5120295;27;20045;-88
2023/07/03 08:26:24;;;;;;;18.67;8.82;;;;;;;26.56;64.75;95971.13;5074594;28;20023;-88
2023/07/03 08:28:49;;;;;;;18.98;9.32;;;;;;;26.44;64.49;95973.22;5074348;27;20023;-88
2023/07/03 08:31:15;;;;;;;15.93;8.15;;;;;;;26.79;65.03;95976.00;5105105;27;20442;-88
2023/07/03 08:33:41;;;;;;;15.05;8.90;;;;;;;26.36;64.51;95973.72;5096884;28;20339;-89
2023/07/03 08:36:06;;;;;;;19.85;11.18;;;;;;;27.37;60.92;95977.66;5093846;27;20023;-88
2023/07/03 08:38:32;;;;;;;18.52;8.80;;;;;;;26.74;64.29;95969.78;5115983;27;20609;-88
2023/07/03 08:40:59;;;;;;;19.10;9.57;;;;;;;26.52;64.74;95978.91;5094353;28;20507;-88
2023/07/03 08:43:35;;;;;;;17.95;8.82;;;;;;;27.19;60.63;95974.41;5079478;28;20031;-88
2023/07/03 08:46:03;;;;;;;18.20;9.23;;;;;;;27.06;63.03;95974.09;5070842;28;20024;-87
2023/07/03 08:48:34;;;;;;;14.15;8.63;;;;;;;26.44;65.84;95971.31;5084962;27;20396;-88
2023/07/03 08:51:02;;;;;;;15.70;8.07;;;;;;;25.98;70.22;95984.63;5066048;28;20505;-87
2023/07/03 08:53:34;;;;;;;17.38;7.75;;;;;;;26.36;68.04;95977.25;5084337;28;20024;-87
2023/07/03 08:56:20;;;;;;;16.77;8.18;;;;;;;26.43;67.52;95977.00;5067085;27;20053;-87
2023/07/03 08:58:46;;;;;;;16.83;8.00;;;;;;;25.51;73.40;95988.13;5082198;27;20027;-88
2023/07/03 09:01:27;;;;;;;16.90;8.80;;;;;;;25.59;73.47;95986.84;5077915;28;20020;-88
2023/07/03 09:04:12;;;;;;;17.05;7.80;;;;;;;25.96;70.83;95992.19;5080370;28;20031;-87
2023/07/03 09:06:53;;;;;;;17.50;8.75;;;;;;;25.90;74.84;95995.94;5082062;28;20118;-88
2023/07/03 09:09:48;;;;;;;17.05;8.95;;;;;;;25.62;75.63;95992.53;5097588;28;20023;-88
2023/07/03 09:12:28;;;;;;;14.32;8.35;;;;;;;25.53;78.50;95999.47;5089207;28;20023;-88
2023/07/03 09:15:09;;;;;;;13.82;7.97;;;;;;;25.23;81.32;95999.25;5079079;27;20042;-88
2023/07/03 09:17:37;;;;;;;16.85;8.70;;;;;;;25.06;81.44;96002.84;5118251;28;20522;-88
2023/07/03 09:20:05;;;;;;;14.38;8.18;;;;;;;25.78;79.42;96006.06;5108520;28;20102;-89
2023/07/03 09:22:46;;;;;;;17.08;9.20;;;;;;;25.81;79.52;96013.66;5073622;28;20100;-83
2023/07/03 09:25:21;;;;;;;16.45;9.68;;;;;;;25.61;79.44;96017.81;5072328;28;20020;-83
2023/07/03 09:27:50;;;;;;;21.08;9.85;;;;;;;25.17;81.64;96011.84;5071599;28;20016;-83
2023/07/03 09:30:16;;;;;;;17.42;9.82;;;;;;;25.58;81.82;96010.25;5079520;28;20456;-83
2023/07/03 09:32:42;;;;;;;19.88;10.13;;;;;;;26.10;78.76;96017.56;5083958;28;20473;-82
2023/07/03 09:35:16;;;;;;;20.98;9.95;;;;;;;25.60;81.92;96012.69;5077633;28;20158;-83
2023/07/03 09:37:47;;;;;;;18.15;8.70;;;;;;;26.17;77.30;96019.22;5077667;28;20023;-82
2023/07/03 09:40:37;;;;;;;17.88;9.52;;;;;;;27.07;72.40;96018.94;5092518;28;20026;-82
2023/07/03 09:43:22;;;;;;;21.60;11.02;;;;;;;26.89;71.56;96010.25;5075100;28;20024;-83
2023/07/03 09:45:50;;;;;;;18.25;9.48;;;;;;;28.08;63.44;96017.22;5086236;28;20442;-83
2023/07/03 09:48:26;;;;;;;14.90;8.63;;;;;;;27.91;63.89;96014.84;5105436;28;20545;-83
2023/07/03 09:50:52;;;;;;;17.20;9.30;;;;;;;27.03;68.40;96014.06;5089501;28;20027;-84
2023/07/03 09:53:21;;;;;;;16.20;8.95;;;;;;;26.33;68.85;96020.91;5089327;28;20062;-82
2023/07/03 09:55:52;;;;;;;17.55;9.75;;;;;;;26.58;70.90;96016.69;5092179;28;20252;-83
2023/07/03 09:58:18;;;;;;;18.10;9.23;;;;;;;26.74;71.75;96015.66;5075547;28;20023;-83
2023/07/03 10:00:51;;;;;;;19.48;8.95;;;;;;;26.73;71.96;96019.44;5093232;28;20437;-83
2023/07/03 10:03:23;;;;;;;19.13;9.77;;;;;;;26.60;73.83;96030.72;5087336;28;20026;-83
2023/07/03 10:05:54;;;;;;;18.08;9.35;;;;;;;26.89;71.78;96023.75;5085779;28;20038;-83
2023/07/03 10:08:24;;;;;;;20.17;8.75;;;;;;;27.86;62.90;96021.06;5076085;28;20031;-83
2023/07/03 10:10:53;;;;;;;15.98;9.07;;;;;;;28.83;57.01;96012.53;5099987;28;20066;-83
2023/07/03 10:13:30;;;;;;;17.73;9.52;;;;;;;28.85;53.01;96021.19;5079569;28;20056;-83
2023/07/03 10:15:58;;;;;;;20.67;9.48;;;;;;;29.55;49.42;96022.84;5075074;28;20037;-83
2023/07/03 10:18:36;;;;;;;16.70;8.95;;;;;;;29.06;51.58;96015.66;5066599;28;20024;-82
2023/07/03 10:21:06;;;;;;;14.50;8.75;;;;;;;29.47;51.08;96018.03;5087833;28;20243;-81
2023/07/03 10:23:35;;;;;;;16.92;9.02;;;;;;;28.07;55.59;96016.41;5094983;28;20023;-81
2023/07/03 10:26:11;;;;;;;15.18;8.75;;;;;;;27.71;58.99;96027.28;5085166;28;20095;-82
2023/07/03 10:28:48;;;;;;;15.73;8.55;;;;;;;27.32;59.86;96027.03;5073107;27;20036;-82
2023/07/03 10:31:39;;;;;;;15.35;7.72;;;;;;;27.66;58.05;96026.47;5073171;27;20491;-81
2023/07/03 10:34:12;;;;;;;16.40;9.75;;;;;;;28.56;55.22;96031.91;5082050;28;20080;-81
2023/07/03 10:36:40;;;;;;;15.02;8.38;;;;;;;29.27;51.26;96025.22;5096168;27;20035;-81
2023/07/03 10:39:17;;;;;;;16.80;8.38;;;;;;;29.68;50.10;96030.34;5078078;28;20027;-81
2023/07/03 10:41:56;;;;;;;19.23;9.32;;;;;;;29.12;49.58;96019.94;5110572;27;20032;-84
2023/07/03 10:44:27;;;;;;;15.65;8.23;;;;;;;30.16;48.25;96029.56;5084326;28;20031;-80
2023/07/03 10:47:04;;;;;;;14.02;7.68;;;;;;;29.87;45.30;96024.97;5097185;27;20050;-81
2023/07/03 10:49:32;;;;;;;17.08;7.88;;;;;;;30.05;43.71;96020.75;5074770;28;20016;-81
2023/07/03 10:52:07;;;;;;;13.73;6.90;;;;;;;30.04;44.37;96027.25;5062954;28;20107;-81
2023/07/03 10:55:07;;;;;;;13.82;7.35;;;;;;;29.71;43.38;96018.09;5082672;28;20060;-80
2023/07/03 10:57:45;;;;;;;15.27;7.28;;;;;;;29.16;44.74;96004.75;5082000;28;20028;-80
2023/07/03 11:00:27;;;;;;;14.70;7.22;;;;;;;30.67;43.04;96015.38;5087940;27;20469;-81
2023/07/03 11:03:19;;;;;;;13.23;7.05;;;;;;;31.05;40.09;96009.94;5096254;27;20481;-81
2023/07/03 11:05:57;;;;;;;15.02;8.00;;;;;;;30.15;40.41;96015.19;5082797;28;20032;-81
2023/07/03 11:08:46;;;;;;;12.60;6.85;;;;;;;29.73;40.63;96014.00;5086683;28;20038;-81
2023/07/03 11:11:38;;;;;;;16.50;8.30;;;;;;;29.68;40.96;96011.38;5097485;28;20015;-80
2023/07/03 11:14:19;;;;;;;13.32;6.97;;;;;;;28.35;45.65;96016.84;5093013;27;20103;-82
2023/07/03 11:17:15;;;;;;;16.80;9.52;;;;;;;28.33;46.18;96019.81;5095544;27;20499;-81
2023/07/03 11:19:46;;;;;;;17.20;8.18;;;;;;;27.90;48.39;96019.44;5091731;27;20043;-81
2023/07/03 11:22:20;;;;;;;13.88;7.35;;;;;;;28.76;46.62;96022.06;5075521;27;20023;-81
2023/07/03 11:25:05;;;;;;;15.40;7.80;;;;;;;30.23;43.14;96011.84;5105899;27;20067;-81